createdAt,value
2023-01-15T00:02:35.770Z,4.50
2023-01-15T00:06:03.110Z,4.40
2023-01-15T00:09:25.096Z,4.50
2023-01-15T00:12:47.119Z,4.50
2023-01-15T00:16:13.770Z,4.50
2023-01-15T00:19:35.837Z,4.60
2023-01-15T00:22:57.747Z,4.60
2023-01-15T00:26:40.263Z,4.60
2023-01-15T00:30:02.257Z,4.60
2023-01-15T00:33:25.067Z,4.60
2023-01-15T00:36:47.147Z,4.60
2023-01-15T00:40:09.787Z,4.50
2023-01-15T00:43:33.658Z,4.50
2023-01-15T00:46:55.752Z,4.40
2023-01-15T00:50:17.793Z,4.40
2023-01-15T00:53:39.810Z,4.30
2023-01-15T00:57:02.131Z,4.30
2023-01-15T01:00:24.167Z,4.30
2023-01-15T01:03:52.641Z,4.30
2023-01-15T01:07:14.844Z,4.30
2023-01-15T01:10:37.224Z,4.30
2023-01-15T01:13:59.237Z,4.30
2023-01-15T01:17:21.364Z,4.30
2023-01-15T01:20:43.383Z,4.30
2023-01-15T01:24:06.823Z,4.30
2023-01-15T01:27:30.023Z,4.40
2023-01-15T01:30:51.981Z,4.40
2023-01-15T01:34:14.628Z,4.30
2023-01-15T01:37:37.201Z,4.30
2023-01-15T01:40:59.575Z,4.30
2023-01-15T01:44:34.913Z,4.30
2023-01-15T01:48:02.872Z,4.20
2023-01-15T01:51:28.927Z,4.20
2023-01-15T01:54:52.459Z,4.20
2023-01-15T01:58:16.599Z,4.10
2023-01-15T02:01:38.758Z,4.10
2023-01-15T02:05:01.890Z,4.00
2023-01-15T02:08:24.198Z,4.00
2023-01-15T02:11:46.274Z,4.00
2023-01-15T02:15:15.534Z,4.00
2023-01-15T02:19:03.543Z,4.00
2023-01-15T02:23:06.666Z,4.10
2023-01-15T02:26:55.263Z,4.10
2023-01-15T02:30:25.989Z,4.10
2023-01-15T02:33:55.744Z,4.10
2023-01-15T02:37:25.896Z,4.10
2023-01-15T02:40:50.925Z,4.20
2023-01-15T02:44:19.340Z,4.20
2023-01-15T02:47:44.491Z,4.20
2023-01-15T02:51:12.915Z,4.20
2023-01-15T02:54:45.386Z,4.20
2023-01-15T02:58:14.756Z,4.30
2023-01-15T03:01:50.232Z,4.30
2023-01-15T03:05:24.060Z,4.40
2023-01-15T03:08:46.904Z,4.40
2023-01-15T03:12:26.911Z,4.40
2023-01-15T03:16:17.872Z,4.50
2023-01-15T03:19:47.604Z,4.60
2023-01-15T03:23:16.686Z,4.60
2023-01-15T03:26:38.789Z,4.70
2023-01-15T03:30:08.906Z,4.70
2023-01-15T03:33:31.331Z,4.70
2023-01-15T03:36:54.097Z,4.70
2023-01-15T03:40:17.541Z,4.80
2023-01-15T03:44:15.551Z,4.80
2023-01-15T03:47:47.358Z,4.80
2023-01-15T03:51:40.516Z,4.80
2023-01-15T03:55:17.659Z,4.80
2023-01-15T03:58:55.416Z,4.80
2023-01-15T04:02:26.657Z,4.80
2023-01-15T04:05:50.987Z,4.80
2023-01-15T04:09:15.079Z,4.80
2023-01-15T04:12:38.996Z,4.80
2023-01-15T04:16:05.657Z,4.80
2023-01-15T04:19:27.668Z,4.90
2023-01-15T04:22:58.707Z,4.80
2023-01-15T04:26:21.142Z,4.80
2023-01-15T04:29:43.158Z,4.80
2023-01-15T04:33:05.710Z,4.80
2023-01-15T04:36:27.807Z,4.80
2023-01-15T04:39:49.832Z,4.80
2023-01-15T04:43:31.139Z,4.80
2023-01-15T04:46:54.021Z,4.80
2023-01-15T04:50:16.528Z,4.90
2023-01-15T04:53:38.443Z,4.80
2023-01-15T04:57:00.594Z,4.90
2023-01-15T05:00:23.293Z,4.90
2023-01-15T05:03:45.369Z,4.90
2023-01-15T05:07:07.394Z,4.90
2023-01-15T05:10:29.332Z,5.00
2023-01-15T05:13:51.323Z,4.90
2023-01-15T05:17:13.290Z,5.00
2023-01-15T05:20:38.188Z,4.90
2023-01-15T05:24:02.609Z,4.90
2023-01-15T05:27:24.571Z,4.90
2023-01-15T05:30:46.576Z,5.00
2023-01-15T05:34:09.736Z,4.90
2023-01-15T05:37:31.663Z,5.00
2023-01-15T05:40:53.758Z,5.00
2023-01-15T05:44:27.935Z,5.00
2023-01-15T05:47:49.929Z,5.00
2023-01-15T05:51:12.223Z,4.90
2023-01-15T05:54:36.116Z,4.90
2023-01-15T05:57:58.586Z,4.90
2023-01-15T06:01:21.347Z,4.90
2023-01-15T06:04:43.366Z,4.90
2023-01-15T06:08:05.588Z,4.90
2023-01-15T06:11:27.751Z,4.90
2023-01-15T06:14:49.832Z,4.90
2023-01-15T06:18:11.877Z,4.90
2023-01-15T06:21:34.968Z,4.80
2023-01-15T06:24:57.000Z,4.80
2023-01-15T06:28:19.058Z,4.80
2023-01-15T06:31:41.192Z,4.80
2023-01-15T06:35:03.636Z,4.80
2023-01-15T06:38:25.635Z,4.80
2023-01-15T06:42:06.415Z,4.80
2023-01-15T06:45:50.074Z,4.80
2023-01-15T06:49:12.079Z,4.80
2023-01-15T06:52:34.064Z,4.80
2023-01-15T06:55:56.032Z,4.80
2023-01-15T06:59:19.367Z,4.80
2023-01-15T07:02:41.509Z,4.80
2023-01-15T07:06:11.403Z,4.80
2023-01-15T07:09:33.436Z,4.80
2023-01-15T07:12:55.404Z,4.80
2023-01-15T07:16:29.570Z,4.80
2023-01-15T07:19:51.568Z,4.80
2023-01-15T07:23:14.977Z,4.90
2023-01-15T07:26:38.526Z,4.90
2023-01-15T07:30:00.508Z,4.90
2023-01-15T07:33:22.610Z,5.00
2023-01-15T07:36:44.718Z,5.00
2023-01-15T07:40:07.020Z,5.00
2023-01-15T07:43:47.611Z,5.00
2023-01-15T07:47:34.161Z,5.00
2023-01-15T07:50:56.163Z,5.00
2023-01-15T07:54:18.130Z,5.00
2023-01-15T07:57:41.599Z,5.00
2023-01-15T08:01:03.674Z,5.00
2023-01-15T08:04:26.413Z,5.10
2023-01-15T08:07:50.037Z,5.10
2023-01-15T08:11:30.961Z,5.10
2023-01-15T08:15:11.671Z,5.10
2023-01-15T08:18:33.645Z,5.20
2023-01-15T08:21:57.008Z,5.10
2023-01-15T08:25:21.772Z,5.20
2023-01-15T08:28:43.772Z,5.30
2023-01-15T08:32:06.310Z,5.30
2023-01-15T08:35:28.310Z,5.40
2023-01-15T08:38:50.519Z,5.40
2023-01-15T08:42:12.495Z,5.40
2023-01-15T08:45:34.506Z,5.50
2023-01-15T08:48:56.530Z,5.50
2023-01-15T08:52:18.545Z,5.60
2023-01-15T08:55:40.983Z,5.70
2023-01-15T08:59:07.981Z,5.80
2023-01-15T09:02:30.089Z,5.90
2023-01-15T09:05:52.119Z,6.00
2023-01-15T09:09:14.808Z,6.10
2023-01-15T09:12:37.605Z,6.10
2023-01-15T09:16:00.704Z,6.20
2023-01-15T09:19:22.721Z,6.20
2023-01-15T09:22:44.727Z,6.30
2023-01-15T09:26:08.092Z,6.40
2023-01-15T09:29:30.059Z,6.50
2023-01-15T09:32:52.037Z,6.60
2023-01-15T09:36:19.258Z,6.50
2023-01-15T09:39:41.440Z,6.40
2023-01-15T09:43:30.906Z,6.30
2023-01-15T09:46:58.586Z,6.30
2023-01-15T09:50:49.794Z,6.30
2023-01-15T09:54:18.269Z,6.30
2023-01-15T09:57:41.622Z,6.30
2023-01-15T10:01:04.387Z,6.30
2023-01-15T10:04:40.985Z,6.40
2023-01-15T10:08:50.624Z,6.40
2023-01-15T10:12:39.740Z,6.40
2023-01-15T10:16:02.377Z,6.30
2023-01-15T10:19:28.172Z,6.30
2023-01-15T10:22:58.817Z,6.40
2023-01-15T10:26:40.764Z,6.50
2023-01-15T10:30:15.756Z,6.50
2023-01-15T10:33:59.711Z,6.70
2023-01-15T10:37:41.774Z,6.80
2023-01-15T10:41:22.545Z,6.90
2023-01-15T10:44:59.709Z,7.00
2023-01-15T10:48:27.324Z,6.90
2023-01-15T10:52:05.058Z,6.90
2023-01-15T10:55:35.055Z,6.80
2023-01-15T10:59:05.596Z,6.90
2023-01-15T11:02:39.977Z,6.90
2023-01-15T11:06:02.371Z,6.90
2023-01-15T11:09:34.808Z,6.90
2023-01-15T11:13:31.214Z,7.00
2023-01-15T11:16:56.165Z,6.90
2023-01-15T11:20:24.156Z,6.90
2023-01-15T11:23:46.774Z,6.80
2023-01-15T11:27:15.880Z,6.90
2023-01-15T11:30:38.380Z,7.00
2023-01-15T11:34:02.707Z,7.10
2023-01-15T11:37:25.158Z,7.10
2023-01-15T11:40:55.036Z,6.90
2023-01-15T11:44:37.818Z,7.00
2023-01-15T11:48:35.343Z,7.00
2023-01-15T11:52:00.786Z,7.00
2023-01-15T11:55:26.753Z,7.00
2023-01-15T11:58:58.539Z,6.90
2023-01-15T12:02:48.911Z,6.90
2023-01-15T12:06:13.994Z,6.90
2023-01-15T12:10:05.748Z,6.90
2023-01-15T12:13:43.578Z,6.80
2023-01-15T12:17:11.569Z,6.70
2023-01-15T12:20:49.753Z,6.70
2023-01-15T12:24:27.623Z,6.70
2023-01-15T12:28:13.426Z,6.70
2023-01-15T12:31:49.258Z,6.70
2023-01-15T12:35:49.066Z,6.60
2023-01-15T12:39:36.799Z,6.60
2023-01-15T12:43:17.781Z,6.60
2023-01-15T12:46:44.417Z,6.50
2023-01-15T12:50:12.221Z,6.50
2023-01-15T12:53:43.990Z,6.50
2023-01-15T12:57:18.085Z,6.50
2023-01-15T13:00:43.366Z,6.50
2023-01-15T13:04:16.664Z,6.50
2023-01-15T13:07:56.223Z,6.40
2023-01-15T13:11:18.226Z,6.30
2023-01-15T13:14:40.540Z,6.10
2023-01-15T13:18:26.941Z,6.10
2023-01-15T13:21:53.020Z,6.00
2023-01-15T13:25:33.493Z,6.00
2023-01-15T13:29:04.211Z,5.90
2023-01-15T13:33:01.585Z,6.00
2023-01-15T13:36:32.463Z,5.90
2023-01-15T13:40:03.664Z,5.90
2023-01-15T13:43:36.042Z,5.90
2023-01-15T13:47:08.450Z,6.00
2023-01-15T13:50:33.214Z,6.00
2023-01-15T13:53:58.005Z,6.00
2023-01-15T13:57:41.172Z,6.00
2023-01-15T14:01:25.406Z,6.00
2023-01-15T14:04:47.443Z,6.00
2023-01-15T14:08:17.324Z,5.90
2023-01-15T14:12:06.974Z,6.00
2023-01-15T14:15:32.128Z,6.00
2023-01-15T14:19:19.667Z,5.90
2023-01-15T14:23:01.001Z,5.90
2023-01-15T14:26:54.672Z,5.90
2023-01-15T14:30:42.594Z,5.90
2023-01-15T14:34:33.054Z,5.80
2023-01-15T14:37:59.494Z,5.80
2023-01-15T14:41:57.290Z,5.80
2023-01-15T14:45:21.982Z,5.80
2023-01-15T14:48:44.019Z,5.80
2023-01-15T14:52:06.077Z,5.90
2023-01-15T14:55:29.063Z,5.90
2023-01-15T14:59:08.871Z,5.90
2023-01-15T15:02:38.933Z,6.00
2023-01-15T15:06:01.285Z,6.00
2023-01-15T15:09:34.962Z,6.00
2023-01-15T15:13:20.384Z,6.00
2023-01-15T15:16:50.445Z,6.00
2023-01-15T15:20:31.480Z,5.90
2023-01-15T15:24:14.303Z,5.90
2023-01-15T15:27:36.399Z,5.90
2023-01-15T15:31:01.679Z,5.90
2023-01-15T15:34:34.645Z,5.90
2023-01-15T15:38:05.810Z,5.90
2023-01-15T15:41:56.390Z,5.90
2023-01-15T15:45:40.380Z,5.80
2023-01-15T15:49:02.626Z,5.80
2023-01-15T15:52:25.933Z,5.80
2023-01-15T15:55:48.075Z,5.80
2023-01-15T15:59:37.118Z,5.80
2023-01-15T16:03:17.534Z,5.80
2023-01-15T16:06:39.566Z,5.80
2023-01-15T16:10:12.659Z,5.80
2023-01-15T16:13:38.278Z,5.80
2023-01-15T16:17:00.424Z,5.80
2023-01-15T16:20:22.741Z,5.80
2023-01-15T16:24:02.802Z,5.80
2023-01-15T16:27:33.155Z,5.80
2023-01-15T16:30:57.559Z,5.80
2023-01-15T16:34:22.831Z,5.80
2023-01-15T16:37:49.488Z,5.80
2023-01-15T16:41:35.398Z,5.80
2023-01-15T16:45:01.802Z,5.80
2023-01-15T16:48:45.725Z,5.80
2023-01-15T16:52:46.305Z,5.80
2023-01-15T16:56:47.043Z,5.90
2023-01-15T17:00:30.722Z,5.80
2023-01-15T17:03:53.522Z,5.70
2023-01-15T17:07:20.918Z,5.70
2023-01-15T17:10:58.848Z,5.70
2023-01-15T17:14:24.102Z,5.70
2023-01-15T17:17:48.763Z,5.70
2023-01-15T17:21:18.717Z,5.70
2023-01-15T17:24:52.229Z,5.60
2023-01-15T17:28:15.190Z,5.60
2023-01-15T17:31:37.358Z,5.60
2023-01-15T17:34:59.384Z,5.50
2023-01-15T17:38:21.436Z,5.50
2023-01-15T17:41:43.405Z,5.50
2023-01-15T17:45:05.833Z,5.50
2023-01-15T17:48:27.808Z,5.50
2023-01-15T17:51:50.159Z,5.50
2023-01-15T17:55:32.908Z,5.50
2023-01-15T17:59:13.542Z,5.50
2023-01-15T18:02:54.211Z,5.50
2023-01-15T18:06:17.529Z,5.50
2023-01-15T18:09:39.623Z,5.50
2023-01-15T18:13:03.691Z,5.50
2023-01-15T18:16:26.460Z,5.60
2023-01-15T18:19:48.509Z,5.60
2023-01-15T18:23:10.832Z,5.70
2023-01-15T18:26:34.863Z,5.70
2023-01-15T18:29:57.908Z,5.70
2023-01-15T18:33:19.920Z,5.70
2023-01-15T18:36:42.160Z,5.70
2023-01-15T18:40:05.073Z,5.70
2023-01-15T18:43:45.643Z,5.70
2023-01-15T18:47:12.300Z,5.70
2023-01-15T18:50:34.291Z,5.70
2023-01-15T18:53:56.244Z,5.70
2023-01-15T18:57:18.256Z,5.60
2023-01-15T19:00:40.471Z,5.70
2023-01-15T19:04:06.315Z,5.70
2023-01-15T19:07:28.980Z,5.60
2023-01-15T19:10:51.871Z,5.60
2023-01-15T19:14:33.375Z,5.60
2023-01-15T19:18:14.023Z,5.60
2023-01-15T19:21:35.999Z,5.60
2023-01-15T19:24:57.992Z,5.60
2023-01-15T19:28:21.311Z,5.60
2023-01-15T19:31:43.396Z,5.60
2023-01-15T19:35:05.871Z,5.70
2023-01-15T19:38:27.913Z,5.70
2023-01-15T19:42:08.444Z,5.70
2023-01-15T19:45:49.931Z,5.70
2023-01-15T19:49:38.790Z,5.70
2023-01-15T19:53:01.207Z,5.80
2023-01-15T19:56:23.152Z,5.70
2023-01-15T19:59:48.012Z,5.80
2023-01-15T20:03:12.444Z,5.80
2023-01-15T20:06:34.452Z,5.80
2023-01-15T20:09:56.573Z,5.80
2023-01-15T20:13:39.985Z,5.70
2023-01-15T20:17:01.984Z,5.80
2023-01-15T20:20:25.131Z,5.70
2023-01-15T20:23:47.113Z,5.70
2023-01-15T20:27:10.082Z,5.70
2023-01-15T20:30:32.130Z,5.70
2023-01-15T20:33:55.688Z,5.70
2023-01-15T20:37:17.783Z,5.70
2023-01-15T20:40:40.000Z,5.70
2023-01-15T20:44:20.425Z,5.70
2023-01-15T20:48:02.203Z,5.60
2023-01-15T20:51:24.209Z,5.60
2023-01-15T20:54:46.183Z,5.60
2023-01-15T20:58:08.381Z,5.60
2023-01-15T21:01:30.576Z,5.60
2023-01-15T21:04:52.717Z,5.60
2023-01-15T21:08:14.862Z,5.60
2023-01-15T21:11:36.993Z,5.60
2023-01-15T21:14:59.028Z,5.60
2023-01-15T21:18:21.020Z,5.60
2023-01-15T21:21:43.034Z,5.60
2023-01-15T21:25:06.257Z,5.60
2023-01-15T21:28:29.151Z,5.60
2023-01-15T21:31:51.505Z,5.60
2023-01-15T21:35:13.551Z,5.60
2023-01-15T21:38:36.137Z,5.60
2023-01-15T21:42:16.665Z,5.60
2023-01-15T21:45:38.814Z,5.60
2023-01-15T21:49:00.854Z,5.60
2023-01-15T21:52:23.494Z,5.60
2023-01-15T21:55:52.527Z,5.70
2023-01-15T21:59:15.051Z,5.70
2023-01-15T22:02:37.227Z,5.70
2023-01-15T22:06:05.007Z,5.60
2023-01-15T22:09:27.323Z,5.60
2023-01-15T22:12:49.456Z,5.60
2023-01-15T22:16:11.445Z,5.50
2023-01-15T22:19:34.133Z,5.50
2023-01-15T22:22:56.185Z,5.50
2023-01-15T22:26:19.484Z,5.50
2023-01-15T22:29:42.803Z,5.40
2023-01-15T22:33:04.886Z,5.40
2023-01-15T22:36:27.436Z,5.40
2023-01-15T22:39:50.013Z,5.30
2023-01-15T22:43:11.958Z,5.30
2023-01-15T22:46:35.404Z,5.30
2023-01-15T22:49:57.480Z,5.30
2023-01-15T22:53:19.430Z,5.30
2023-01-15T22:56:41.580Z,5.30
2023-01-15T23:00:04.925Z,5.20
2023-01-15T23:03:26.893Z,5.20
2023-01-15T23:06:51.295Z,5.10
2023-01-15T23:10:13.827Z,5.10
2023-01-15T23:13:36.281Z,5.10
2023-01-15T23:16:58.238Z,5.00
2023-01-15T23:20:20.570Z,5.00
2023-01-15T23:23:42.792Z,5.00
2023-01-15T23:27:04.762Z,5.00
2023-01-15T23:30:26.756Z,5.00
2023-01-15T23:33:48.779Z,5.10
2023-01-15T23:37:10.734Z,5.00
2023-01-15T23:40:32.668Z,5.00
2023-01-15T23:44:13.433Z,5.00
2023-01-15T23:47:35.478Z,4.90
2023-01-15T23:50:57.396Z,4.90
2023-01-15T23:54:19.470Z,4.90
2023-01-15T23:57:41.440Z,4.80
